sensor_id;sensor_type;location;lat;lon;timestamp;temperature;humidity
55331;DHT22;58851;42.984;20.336;2023-08-08T00:01:22;384.60;128.00
55331;DHT22;58851;42.984;20.336;2023-08-08T00:03:48;384.50;128.00
55331;DHT22;58851;42.984;20.336;2023-08-08T00:06:13;384.50;128.00
55331;DHT22;58851;42.984;20.336;2023-08-08T00:08:39;384.50;128.00
55331;DHT22;58851;42.984;20.336;2023-08-08T00:11:05;384.50;128.00
55331;DHT22;58851;42.984;20.336;2023-08-08T00:13:31;384.50;128.00
55331;DHT22;58851;42.984;20.336;2023-08-08T00:15:57;384.30;128.00
55331;DHT22;58851;42.984;20.336;2023-08-08T00:18:23;384.40;128.00
55331;DHT22;58851;42.984;20.336;2023-08-08T00:20:49;384.50;128.00
55331;DHT22;58851;42.984;20.336;2023-08-08T00:23:15;384.40;128.00
55331;DHT22;58851;42.984;20.336;2023-08-08T00:25:41;384.40;128.00
55331;DHT22;58851;42.984;20.336;2023-08-08T00:28:06;384.50;128.00
55331;DHT22;58851;42.984;20.336;2023-08-08T00:30:32;384.40;128.00
55331;DHT22;58851;42.984;20.336;2023-08-08T00:32:59;384.30;128.00
55331;DHT22;58851;42.984;20.336;2023-08-08T00:35:25;384.30;128.00
55331;DHT22;58851;42.984;20.336;2023-08-08T00:37:50;384.30;128.00
55331;DHT22;58851;42.984;20.336;2023-08-08T00:40:16;384.20;128.00
55331;DHT22;58851;42.984;20.336;2023-08-08T00:42:42;384.00;128.00
55331;DHT22;58851;42.984;20.336;2023-08-08T00:45:08;384.00;128.00
55331;DHT22;58851;42.984;20.336;2023-08-08T00:47:34;359.30;128.00
55331;DHT22;58851;42.984;20.336;2023-08-08T00:50:04;359.20;128.00
55331;DHT22;58851;42.984;20.336;2023-08-08T00:52:30;359.30;128.00
55331;DHT22;58851;42.984;20.336;2023-08-08T00:54:56;359.30;128.00
55331;DHT22;58851;42.984;20.336;2023-08-08T00:57:22;384.00;128.00
55331;DHT22;58851;42.984;20.336;2023-08-08T00:59:48;384.00;128.00
55331;DHT22;58851;42.984;20.336;2023-08-08T01:02:17;359.30;128.00
55331;DHT22;58851;42.984;20.336;2023-08-08T01:04:43;359.20;128.00
55331;DHT22;58851;42.984;20.336;2023-08-08T01:09:44;359.10;128.00
55331;DHT22;58851;42.984;20.336;2023-08-08T01:12:12;359.00;128.00
55331;DHT22;58851;42.984;20.336;2023-08-08T01:14:41;358.90;128.00
55331;DHT22;58851;42.984;20.336;2023-08-08T01:17:08;359.00;128.00
55331;DHT22;58851;42.984;20.336;2023-08-08T01:19:35;359.00;128.00
55331;DHT22;58851;42.984;20.336;2023-08-08T01:22:09;358.90;128.00
55331;DHT22;58851;42.984;20.336;2023-08-08T01:24:39;358.80;128.00
55331;DHT22;58851;42.984;20.336;2023-08-08T01:27:05;358.80;128.00
55331;DHT22;58851;42.984;20.336;2023-08-08T01:29:32;358.80;128.00
55331;DHT22;58851;42.984;20.336;2023-08-08T01:31:58;358.80;128.00
55331;DHT22;58851;42.984;20.336;2023-08-08T01:34:23;358.90;128.00
55331;DHT22;58851;42.984;20.336;2023-08-08T01:37:19;358.90;128.00
55331;DHT22;58851;42.984;20.336;2023-08-08T01:39:46;358.80;128.00
55331;DHT22;58851;42.984;20.336;2023-08-08T01:42:15;358.80;128.00
55331;DHT22;58851;42.984;20.336;2023-08-08T01:44:41;358.70;128.00
55331;DHT22;58851;42.984;20.336;2023-08-08T01:47:08;358.60;128.00
55331;DHT22;58851;42.984;20.336;2023-08-08T01:49:34;358.70;128.00
55331;DHT22;58851;42.984;20.336;2023-08-08T01:52:00;358.70;128.00
55331;DHT22;58851;42.984;20.336;2023-08-08T01:54:26;358.80;128.00
55331;DHT22;58851;42.984;20.336;2023-08-08T01:56:52;358.80;128.00
55331;DHT22;58851;42.984;20.336;2023-08-08T01:59:18;358.80;128.00
55331;DHT22;58851;42.984;20.336;2023-08-08T02:01:44;358.70;128.00
55331;DHT22;58851;42.984;20.336;2023-08-08T02:04:09;358.70;128.00
55331;DHT22;58851;42.984;20.336;2023-08-08T02:06:35;358.70;128.00
55331;DHT22;58851;42.984;20.336;2023-08-08T02:09:02;358.60;128.00
55331;DHT22;58851;42.984;20.336;2023-08-08T02:11:28;358.60;128.00
55331;DHT22;58851;42.984;20.336;2023-08-08T02:13:54;358.60;128.00
55331;DHT22;58851;42.984;20.336;2023-08-08T02:16:19;358.70;128.00
55331;DHT22;58851;42.984;20.336;2023-08-08T02:18:45;358.70;128.00
55331;DHT22;58851;42.984;20.336;2023-08-08T02:21:11;358.80;128.00
55331;DHT22;58851;42.984;20.336;2023-08-08T02:23:37;358.80;128.00
55331;DHT22;58851;42.984;20.336;2023-08-08T02:26:03;358.80;128.00
55331;DHT22;58851;42.984;20.336;2023-08-08T02:28:29;358.70;128.00
55331;DHT22;58851;42.984;20.336;2023-08-08T02:30:54;358.60;128.00
55331;DHT22;58851;42.984;20.336;2023-08-08T02:33:20;358.70;128.00
55331;DHT22;58851;42.984;20.336;2023-08-08T02:35:46;358.70;128.00
55331;DHT22;58851;42.984;20.336;2023-08-08T02:38:12;358.70;128.00
55331;DHT22;58851;42.984;20.336;2023-08-08T02:40:38;358.70;128.00
55331;DHT22;58851;42.984;20.336;2023-08-08T02:43:04;358.70;128.00
55331;DHT22;58851;42.984;20.336;2023-08-08T02:45:30;358.60;128.00
55331;DHT22;58851;42.984;20.336;2023-08-08T02:47:56;358.60;128.00
55331;DHT22;58851;42.984;20.336;2023-08-08T02:50:22;358.70;128.00
55331;DHT22;58851;42.984;20.336;2023-08-08T02:52:49;358.70;128.00
55331;DHT22;58851;42.984;20.336;2023-08-08T02:55:15;358.70;128.00
55331;DHT22;58851;42.984;20.336;2023-08-08T02:57:40;358.70;128.00
55331;DHT22;58851;42.984;20.336;2023-08-08T03:00:07;358.80;128.00
55331;DHT22;58851;42.984;20.336;2023-08-08T03:02:34;358.70;128.00
55331;DHT22;58851;42.984;20.336;2023-08-08T03:04:59;358.80;128.00
55331;DHT22;58851;42.984;20.336;2023-08-08T03:07:25;358.70;128.00
55331;DHT22;58851;42.984;20.336;2023-08-08T03:09:51;358.70;128.00
55331;DHT22;58851;42.984;20.336;2023-08-08T03:12:17;358.70;128.00
55331;DHT22;58851;42.984;20.336;2023-08-08T03:14:42;358.60;128.00
55331;DHT22;58851;42.984;20.336;2023-08-08T03:17:08;358.70;128.00
55331;DHT22;58851;42.984;20.336;2023-08-08T03:19:34;358.70;128.00
55331;DHT22;58851;42.984;20.336;2023-08-08T03:22:00;358.70;128.00
55331;DHT22;58851;42.984;20.336;2023-08-08T03:24:26;358.70;128.00
55331;DHT22;58851;42.984;20.336;2023-08-08T03:26:51;358.80;128.00
55331;DHT22;58851;42.984;20.336;2023-08-08T03:29:17;358.70;128.00
55331;DHT22;58851;42.984;20.336;2023-08-08T03:31:43;358.70;128.00
55331;DHT22;58851;42.984;20.336;2023-08-08T03:34:09;358.70;128.00
55331;DHT22;58851;42.984;20.336;2023-08-08T03:36:34;358.70;128.00
55331;DHT22;58851;42.984;20.336;2023-08-08T03:39:00;358.70;128.00
55331;DHT22;58851;42.984;20.336;2023-08-08T03:41:26;358.70;128.00
55331;DHT22;58851;42.984;20.336;2023-08-08T03:43:52;358.50;128.00
55331;DHT22;58851;42.984;20.336;2023-08-08T03:46:18;358.60;128.00
55331;DHT22;58851;42.984;20.336;2023-08-08T03:48:44;358.60;128.00
55331;DHT22;58851;42.984;20.336;2023-08-08T03:51:09;358.70;128.00
55331;DHT22;58851;42.984;20.336;2023-08-08T03:53:35;358.60;128.00
55331;DHT22;58851;42.984;20.336;2023-08-08T03:56:01;358.60;128.00
55331;DHT22;58851;42.984;20.336;2023-08-08T03:58:27;358.50;128.00
55331;DHT22;58851;42.984;20.336;2023-08-08T04:00:52;358.50;128.00
55331;DHT22;58851;42.984;20.336;2023-08-08T04:03:18;358.50;128.00
55331;DHT22;58851;42.984;20.336;2023-08-08T04:05:45;358.50;128.00
55331;DHT22;58851;42.984;20.336;2023-08-08T04:08:15;358.50;128.00
55331;DHT22;58851;42.984;20.336;2023-08-08T04:10:41;358.70;128.00
55331;DHT22;58851;42.984;20.336;2023-08-08T04:13:07;358.80;128.00
55331;DHT22;58851;42.984;20.336;2023-08-08T04:15:33;358.90;128.00
55331;DHT22;58851;42.984;20.336;2023-08-08T04:17:59;358.90;128.00
55331;DHT22;58851;42.984;20.336;2023-08-08T04:20:25;359.00;128.00
55331;DHT22;58851;42.984;20.336;2023-08-08T04:22:51;359.00;128.00
55331;DHT22;58851;42.984;20.336;2023-08-08T04:25:17;359.10;128.00
55331;DHT22;58851;42.984;20.336;2023-08-08T04:27:43;359.10;128.00
55331;DHT22;58851;42.984;20.336;2023-08-08T04:30:09;359.20;128.00
55331;DHT22;58851;42.984;20.336;2023-08-08T04:32:34;359.30;128.00
55331;DHT22;58851;42.984;20.336;2023-08-08T04:35:00;359.30;128.00
55331;DHT22;58851;42.984;20.336;2023-08-08T04:37:26;359.30;128.00
55331;DHT22;58851;42.984;20.336;2023-08-08T04:39:52;384.00;128.00
55331;DHT22;58851;42.984;20.336;2023-08-08T04:42:18;384.00;128.00
55331;DHT22;58851;42.984;20.336;2023-08-08T04:44:43;384.20;128.00
55331;DHT22;58851;42.984;20.336;2023-08-08T04:47:09;384.20;128.00
55331;DHT22;58851;42.984;20.336;2023-08-08T04:49:35;384.30;128.00
55331;DHT22;58851;42.984;20.336;2023-08-08T04:52:01;384.30;128.00
55331;DHT22;58851;42.984;20.336;2023-08-08T04:54:26;384.50;128.00
55331;DHT22;58851;42.984;20.336;2023-08-08T04:56:52;384.60;128.00
55331;DHT22;58851;42.984;20.336;2023-08-08T04:59:18;384.70;128.00
55331;DHT22;58851;42.984;20.336;2023-08-08T05:01:44;384.70;128.00
55331;DHT22;58851;42.984;20.336;2023-08-08T05:04:09;384.70;128.00
55331;DHT22;58851;42.984;20.336;2023-08-08T05:06:35;384.70;128.00
55331;DHT22;58851;42.984;20.336;2023-08-08T05:09:01;384.80;128.00
55331;DHT22;58851;42.984;20.336;2023-08-08T05:11:27;384.90;128.00
55331;DHT22;58851;42.984;20.336;2023-08-08T05:13:52;384.90;128.00
55331;DHT22;58851;42.984;20.336;2023-08-08T05:16:18;384.90;128.00
55331;DHT22;58851;42.984;20.336;2023-08-08T05:18:44;384.90;128.00
55331;DHT22;58851;42.984;20.336;2023-08-08T05:21:11;409.60;128.00
55331;DHT22;58851;42.984;20.336;2023-08-08T05:23:37;384.90;128.00
55331;DHT22;58851;42.984;20.336;2023-08-08T05:26:03;384.90;128.00
55331;DHT22;58851;42.984;20.336;2023-08-08T05:28:29;384.90;128.00
55331;DHT22;58851;42.984;20.336;2023-08-08T05:30:55;384.90;128.00
55331;DHT22;58851;42.984;20.336;2023-08-08T05:33:22;409.60;128.00
55331;DHT22;58851;42.984;20.336;2023-08-08T05:35:48;409.60;128.00
55331;DHT22;58851;42.984;20.336;2023-08-08T05:38:14;409.70;128.00
55331;DHT22;58851;42.984;20.336;2023-08-08T05:40:40;409.60;128.00
55331;DHT22;58851;42.984;20.336;2023-08-08T05:43:05;409.60;128.00
55331;DHT22;58851;42.984;20.336;2023-08-08T05:45:31;409.60;128.00
55331;DHT22;58851;42.984;20.336;2023-08-08T05:47:57;409.70;128.00
55331;DHT22;58851;42.984;20.336;2023-08-08T05:50:25;409.60;128.00
55331;DHT22;58851;42.984;20.336;2023-08-08T05:52:51;384.60;128.00
55331;DHT22;58851;42.984;20.336;2023-08-08T05:55:17;384.50;128.00
55331;DHT22;58851;42.984;20.336;2023-08-08T05:57:43;384.50;128.00
55331;DHT22;58851;42.984;20.336;2023-08-08T06:00:09;384.60;128.00
55331;DHT22;58851;42.984;20.336;2023-08-08T06:02:37;384.70;128.00
55331;DHT22;58851;42.984;20.336;2023-08-08T06:05:04;384.60;128.00
55331;DHT22;58851;42.984;20.336;2023-08-08T06:07:30;384.80;128.00
55331;DHT22;58851;42.984;20.336;2023-08-08T06:09:55;384.90;128.00
55331;DHT22;58851;42.984;20.336;2023-08-08T06:12:21;409.60;128.00
55331;DHT22;58851;42.984;20.336;2023-08-08T06:14:47;409.60;128.00
55331;DHT22;58851;42.984;20.336;2023-08-08T06:17:13;384.60;128.00
55331;DHT22;58851;42.984;20.336;2023-08-08T06:19:40;384.70;128.00
55331;DHT22;58851;42.984;20.336;2023-08-08T06:22:06;384.80;128.00
55331;DHT22;58851;42.984;20.336;2023-08-08T06:24:31;384.70;128.00
55331;DHT22;58851;42.984;20.336;2023-08-08T06:26:57;384.80;128.00
55331;DHT22;58851;42.984;20.336;2023-08-08T06:29:23;409.60;128.00
55331;DHT22;58851;42.984;20.336;2023-08-08T06:31:49;384.80;128.00
55331;DHT22;58851;42.984;20.336;2023-08-08T06:34:15;384.70;128.00
55331;DHT22;58851;42.984;20.336;2023-08-08T06:36:41;409.70;128.00
55331;DHT22;58851;42.984;20.336;2023-08-08T06:39:07;410.10;128.00
55331;DHT22;58851;42.984;20.336;2023-08-08T06:41:33;410.10;128.00
55331;DHT22;58851;42.984;20.336;2023-08-08T06:43:58;410.30;128.00
55331;DHT22;58851;42.984;20.336;2023-08-08T06:46:24;410.20;128.00
55331;DHT22;58851;42.984;20.336;2023-08-08T06:48:51;410.10;128.00
55331;DHT22;58851;42.984;20.336;2023-08-08T06:51:21;410.20;128.00
55331;DHT22;58851;42.984;20.336;2023-08-08T06:53:47;410.30;128.00
55331;DHT22;58851;42.984;20.336;2023-08-08T06:56:13;410.20;128.00
55331;DHT22;58851;42.984;20.336;2023-08-08T06:58:39;410.10;128.00
55331;DHT22;58851;42.984;20.336;2023-08-08T07:01:04;410.40;128.00
55331;DHT22;58851;42.984;20.336;2023-08-08T07:03:30;435.30;128.00
55331;DHT22;58851;42.984;20.336;2023-08-08T07:05:56;435.60;128.00
55331;DHT22;58851;42.984;20.336;2023-08-08T07:08:22;435.40;128.00
55331;DHT22;58851;42.984;20.336;2023-08-08T07:10:49;435.40;230.40
55331;DHT22;58851;42.984;20.336;2023-08-08T07:13:15;435.60;128.00
55331;DHT22;58851;42.984;20.336;2023-08-08T07:15:41;435.60;256.00
55331;DHT22;58851;42.984;20.336;2023-08-08T07:18:07;435.40;128.00
55331;DHT22;58851;42.984;20.336;2023-08-08T07:20:32;435.50;128.00
55331;DHT22;58851;42.984;20.336;2023-08-08T07:22:59;435.70;128.00
55331;DHT22;58851;42.984;20.336;2023-08-08T07:25:26;435.90;128.00
55331;DHT22;58851;42.984;20.336;2023-08-08T07:27:51;435.90;128.00
55331;DHT22;58851;42.984;20.336;2023-08-08T07:30:17;436.00;128.00
55331;DHT22;58851;42.984;20.336;2023-08-08T07:32:43;436.00;128.00
55331;DHT22;58851;42.984;20.336;2023-08-08T07:35:09;436.10;128.00
55331;DHT22;58851;42.984;20.336;2023-08-08T07:37:36;460.80;128.00
55331;DHT22;58851;42.984;20.336;2023-08-08T07:40:02;460.90;128.00
55331;DHT22;58851;42.984;20.336;2023-08-08T07:42:29;460.80;128.00
55331;DHT22;58851;42.984;20.336;2023-08-08T07:44:55;460.80;640.00
55331;DHT22;58851;42.984;20.336;2023-08-08T07:47:21;461.00;128.00
55331;DHT22;58851;42.984;20.336;2023-08-08T07:49:46;460.80;128.00
55331;DHT22;58851;42.984;20.336;2023-08-08T07:52:12;435.80;128.00
55331;DHT22;58851;42.984;20.336;2023-08-08T07:54:38;435.70;128.00
55331;DHT22;58851;42.984;20.336;2023-08-08T07:57:04;435.70;128.00
55331;DHT22;58851;42.984;20.336;2023-08-08T07:59:30;435.70;128.00
55331;DHT22;58851;42.984;20.336;2023-08-08T08:01:56;460.80;128.00
55331;DHT22;58851;42.984;20.336;2023-08-08T08:04:21;461.10;128.00
55331;DHT22;58851;42.984;20.336;2023-08-08T08:06:47;461.50;128.00
55331;DHT22;58851;42.984;20.336;2023-08-08T08:09:13;461.20;128.00
55331;DHT22;58851;42.984;20.336;2023-08-08T08:11:39;461.40;128.00
55331;DHT22;58851;42.984;20.336;2023-08-08T08:14:05;461.40;128.00
55331;DHT22;58851;42.984;20.336;2023-08-08T08:16:31;461.50;128.00
55331;DHT22;58851;42.984;20.336;2023-08-08T08:18:56;461.20;128.00
55331;DHT22;58851;42.984;20.336;2023-08-08T08:21:22;461.00;128.00
55331;DHT22;58851;42.984;20.336;2023-08-08T08:23:48;461.30;128.00
55331;DHT22;58851;42.984;20.336;2023-08-08T08:26:14;461.50;128.00
55331;DHT22;58851;42.984;20.336;2023-08-08T08:28:39;461.70;128.00
55331;DHT22;58851;42.984;20.336;2023-08-08T08:31:06;486.40;128.00
55331;DHT22;58851;42.984;20.336;2023-08-08T08:33:33;486.60;128.00
55331;DHT22;58851;42.984;20.336;2023-08-08T08:35:59;486.90;128.00
55331;DHT22;58851;42.984;20.336;2023-08-08T08:38:24;487.10;128.00
55331;DHT22;58851;42.984;20.336;2023-08-08T08:40:54;512.00;128.00
55331;DHT22;58851;42.984;20.336;2023-08-08T08:43:21;487.10;128.00
55331;DHT22;58851;42.984;20.336;2023-08-08T08:45:51;487.10;128.00
55331;DHT22;58851;42.984;20.336;2023-08-08T08:48:18;487.20;128.00
55331;DHT22;58851;42.984;20.336;2023-08-08T08:50:47;512.00;128.00
55331;DHT22;58851;42.984;20.336;2023-08-08T08:53:13;512.00;128.00
55331;DHT22;58851;42.984;20.336;2023-08-08T08:55:40;512.20;128.00
55331;DHT22;58851;42.984;20.336;2023-08-08T08:58:06;512.10;128.00
55331;DHT22;58851;42.984;20.336;2023-08-08T09:00:33;512.20;128.00
55331;DHT22;58851;42.984;20.336;2023-08-08T09:02:59;512.40;128.00
55331;DHT22;58851;42.984;20.336;2023-08-08T09:05:26;512.50;128.00
55331;DHT22;58851;42.984;20.336;2023-08-08T09:07:52;512.60;128.00
55331;DHT22;58851;42.984;20.336;2023-08-08T09:10:18;512.70;128.00
55331;DHT22;58851;42.984;20.336;2023-08-08T09:12:45;512.80;128.00
55331;DHT22;58851;42.984;20.336;2023-08-08T09:15:11;512.90;128.00
55331;DHT22;58851;42.984;20.336;2023-08-08T09:17:41;537.60;128.00
55331;DHT22;58851;42.984;20.336;2023-08-08T09:20:09;512.80;128.00
55331;DHT22;58851;42.984;20.336;2023-08-08T09:22:37;512.60;128.00
55331;DHT22;58851;42.984;20.336;2023-08-08T09:25:04;512.40;128.00
55331;DHT22;58851;42.984;20.336;2023-08-08T09:27:29;512.10;128.00
55331;DHT22;58851;42.984;20.336;2023-08-08T09:29:55;512.00;128.00
55331;DHT22;58851;42.984;20.336;2023-08-08T09:32:21;512.00;128.00
55331;DHT22;58851;42.984;20.336;2023-08-08T09:34:47;512.00;128.00
55331;DHT22;58851;42.984;20.336;2023-08-08T09:37:13;512.20;128.00
55331;DHT22;58851;42.984;20.336;2023-08-08T09:39:40;512.30;128.00
55331;DHT22;58851;42.984;20.336;2023-08-08T09:42:08;512.20;128.00
55331;DHT22;58851;42.984;20.336;2023-08-08T09:44:34;512.40;128.00
55331;DHT22;58851;42.984;20.336;2023-08-08T09:47:00;512.40;128.00
55331;DHT22;58851;42.984;20.336;2023-08-08T09:49:27;512.40;128.00
55331;DHT22;58851;42.984;20.336;2023-08-08T09:51:54;512.40;128.00
55331;DHT22;58851;42.984;20.336;2023-08-08T09:54:20;512.50;128.00
55331;DHT22;58851;42.984;20.336;2023-08-08T09:56:48;537.60;128.00
55331;DHT22;58851;42.984;20.336;2023-08-08T09:59:16;537.90;128.00
55331;DHT22;58851;42.984;20.336;2023-08-08T10:01:43;538.10;128.00
55331;DHT22;58851;42.984;20.336;2023-08-08T10:04:11;538.10;128.00
55331;DHT22;58851;42.984;20.336;2023-08-08T10:06:37;538.40;128.00
55331;DHT22;58851;42.984;20.336;2023-08-08T10:09:03;563.20;128.00
55331;DHT22;58851;42.984;20.336;2023-08-08T10:11:30;563.40;128.00
55331;DHT22;58851;42.984;20.336;2023-08-08T10:14:01;563.50;128.00
55331;DHT22;58851;42.984;20.336;2023-08-08T10:16:27;563.70;128.00
55331;DHT22;58851;42.984;20.336;2023-08-08T10:18:58;563.70;128.00
55331;DHT22;58851;42.984;20.336;2023-08-08T10:21:25;563.70;128.00
55331;DHT22;58851;42.984;20.336;2023-08-08T10:24:11;564.00;128.00
55331;DHT22;58851;42.984;20.336;2023-08-08T10:26:56;588.80;128.00
55331;DHT22;58851;42.984;20.336;2023-08-08T10:29:24;589.00;128.00
55331;DHT22;58851;42.984;20.336;2023-08-08T10:32:03;589.10;128.00
55331;DHT22;58851;42.984;20.336;2023-08-08T10:34:47;588.80;128.00
55331;DHT22;58851;42.984;20.336;2023-08-08T10:37:17;589.10;128.00
55331;DHT22;58851;42.984;20.336;2023-08-08T10:40:02;589.00;128.00
55331;DHT22;58851;42.984;20.336;2023-08-08T10:42:32;588.80;128.00
55331;DHT22;58851;42.984;20.336;2023-08-08T10:45:00;589.00;128.00
55331;DHT22;58851;42.984;20.336;2023-08-08T10:47:34;589.10;128.00
55331;DHT22;58851;42.984;20.336;2023-08-08T10:50:05;589.30;128.00
55331;DHT22;58851;42.984;20.336;2023-08-08T10:52:50;589.40;128.00
55331;DHT22;58851;42.984;20.336;2023-08-08T10:55:33;589.30;128.00
55331;DHT22;58851;42.984;20.336;2023-08-08T11:00:32;589.50;128.00
55331;DHT22;58851;42.984;20.336;2023-08-08T11:02:59;589.60;128.00
55331;DHT22;58851;42.984;20.336;2023-08-08T11:05:28;589.70;128.00
55331;DHT22;58851;42.984;20.336;2023-08-08T11:07:55;614.40;128.00
55331;DHT22;58851;42.984;20.336;2023-08-08T11:10:21;614.70;128.00
55331;DHT22;58851;42.984;20.336;2023-08-08T11:13:01;614.40;128.00
55331;DHT22;58851;42.984;20.336;2023-08-08T11:15:28;614.60;128.00
55331;DHT22;58851;42.984;20.336;2023-08-08T11:17:55;614.80;128.00
55331;DHT22;58851;42.984;20.336;2023-08-08T11:20:22;614.90;128.00
55331;DHT22;58851;42.984;20.336;2023-08-08T11:22:53;614.80;128.00
55331;DHT22;58851;42.984;20.336;2023-08-08T11:25:20;614.80;128.00
55331;DHT22;58851;42.984;20.336;2023-08-08T11:27:52;615.10;128.00
55331;DHT22;58851;42.984;20.336;2023-08-08T11:30:20;614.90;128.00
55331;DHT22;58851;42.984;20.336;2023-08-08T11:32:48;614.70;128.00
55331;DHT22;58851;42.984;20.336;2023-08-08T11:35:23;614.80;128.00
55331;DHT22;58851;42.984;20.336;2023-08-08T11:37:53;614.60;128.00
55331;DHT22;58851;42.984;20.336;2023-08-08T11:40:19;614.90;128.00
55331;DHT22;58851;42.984;20.336;2023-08-08T11:42:47;614.60;128.00
55331;DHT22;58851;42.984;20.336;2023-08-08T11:45:13;614.40;128.00
55331;DHT22;58851;42.984;20.336;2023-08-08T11:47:42;589.50;128.00
55331;DHT22;58851;42.984;20.336;2023-08-08T11:50:09;589.30;128.00
55331;DHT22;58851;42.984;20.336;2023-08-08T11:52:40;563.90;128.00
55331;DHT22;58851;42.984;20.336;2023-08-08T11:55:08;563.70;128.00
55331;DHT22;58851;42.984;20.336;2023-08-08T11:57:36;564.00;128.00
55331;DHT22;58851;42.984;20.336;2023-08-08T12:00:10;589.00;128.00
55331;DHT22;58851;42.984;20.336;2023-08-08T12:02:39;589.30;128.00
55331;DHT22;58851;42.984;20.336;2023-08-08T12:05:10;588.80;128.00
55331;DHT22;58851;42.984;20.336;2023-08-08T12:07:37;589.00;128.00
55331;DHT22;58851;42.984;20.336;2023-08-08T12:10:05;564.00;128.00
55331;DHT22;58851;42.984;20.336;2023-08-08T12:12:32;588.90;128.00
55331;DHT22;58851;42.984;20.336;2023-08-08T12:15:06;588.80;128.00
55331;DHT22;58851;42.984;20.336;2023-08-08T12:17:32;588.80;128.00
55331;DHT22;58851;42.984;20.336;2023-08-08T12:20:04;588.90;128.00
55331;DHT22;58851;42.984;20.336;2023-08-08T12:22:35;589.10;128.00
55331;DHT22;58851;42.984;20.336;2023-08-08T12:25:01;589.10;128.00
55331;DHT22;58851;42.984;20.336;2023-08-08T12:27:29;589.40;128.00
55331;DHT22;58851;42.984;20.336;2023-08-08T12:29:55;614.80;128.00
55331;DHT22;58851;42.984;20.336;2023-08-08T12:32:26;640.10;128.00
55331;DHT22;58851;42.984;20.336;2023-08-08T12:34:53;640.10;128.00
55331;DHT22;58851;42.984;20.336;2023-08-08T12:37:19;640.10;128.00
55331;DHT22;58851;42.984;20.336;2023-08-08T12:39:45;640.30;128.00
55331;DHT22;58851;42.984;20.336;2023-08-08T12:42:11;640.70;128.00
55331;DHT22;58851;42.984;20.336;2023-08-08T12:44:37;640.30;128.00
55331;DHT22;58851;42.984;20.336;2023-08-08T12:47:02;615.00;128.00
55331;DHT22;58851;42.984;20.336;2023-08-08T12:49:28;614.40;128.00
55331;DHT22;58851;42.984;20.336;2023-08-08T12:51:54;589.30;128.00
55331;DHT22;58851;42.984;20.336;2023-08-08T12:54:21;589.10;128.00
55331;DHT22;58851;42.984;20.336;2023-08-08T12:56:47;588.90;128.00
55331;DHT22;58851;42.984;20.336;2023-08-08T12:59:13;589.20;128.00
55331;DHT22;58851;42.984;20.336;2023-08-08T13:01:39;614.50;128.00
55331;DHT22;58851;42.984;20.336;2023-08-08T13:04:05;615.10;128.00
55331;DHT22;58851;42.984;20.336;2023-08-08T13:06:31;665.60;153.60
55331;DHT22;58851;42.984;20.336;2023-08-08T13:08:58;666.50;153.60
55331;DHT22;58851;42.984;20.336;2023-08-08T13:11:25;692.00;153.60
55331;DHT22;58851;42.984;20.336;2023-08-08T13:13:52;692.00;153.60
55331;DHT22;58851;42.984;20.336;2023-08-08T13:16:18;691.60;153.60
55331;DHT22;58851;42.984;20.336;2023-08-08T13:18:44;666.20;153.60
55331;DHT22;58851;42.984;20.336;2023-08-08T13:21:10;640.60;128.00
55331;DHT22;58851;42.984;20.336;2023-08-08T13:23:36;640.40;128.00
55331;DHT22;58851;42.984;20.336;2023-08-08T13:26:02;640.00;128.00
55331;DHT22;58851;42.984;20.336;2023-08-08T13:28:29;640.30;128.00
55331;DHT22;58851;42.984;20.336;2023-08-08T13:30:55;640.70;128.00
55331;DHT22;58851;42.984;20.336;2023-08-08T13:33:21;691.50;153.60
55331;DHT22;58851;42.984;20.336;2023-08-08T13:35:47;691.50;153.60
55331;DHT22;58851;42.984;20.336;2023-08-08T13:38:13;691.50;153.60
55331;DHT22;58851;42.984;20.336;2023-08-08T13:40:43;691.60;153.60
55331;DHT22;58851;42.984;20.336;2023-08-08T13:43:09;716.90;179.20
55331;DHT22;58851;42.984;20.336;2023-08-08T13:45:35;692.10;153.60
55331;DHT22;58851;42.984;20.336;2023-08-08T13:48:01;691.60;153.60
55331;DHT22;58851;42.984;20.336;2023-08-08T13:50:27;717.40;179.20
55331;DHT22;58851;42.984;20.336;2023-08-08T13:52:54;691.40;153.60
55331;DHT22;58851;42.984;20.336;2023-08-08T13:55:20;691.50;153.60
55331;DHT22;58851;42.984;20.336;2023-08-08T13:57:46;717.30;179.20
55331;DHT22;58851;42.984;20.336;2023-08-08T14:00:12;742.90;204.80
55331;DHT22;58851;42.984;20.336;2023-08-08T14:02:39;717.50;179.20
55331;DHT22;58851;42.984;20.336;2023-08-08T14:05:05;742.50;204.80
55331;DHT22;58851;42.984;20.336;2023-08-08T14:07:35;768.40;204.80
55331;DHT22;58851;42.984;20.336;2023-08-08T14:10:02;768.10;204.80
55331;DHT22;58851;42.984;20.336;2023-08-08T14:12:29;742.40;204.80
55331;DHT22;58851;42.984;20.336;2023-08-08T14:14:55;691.50;153.60
55331;DHT22;58851;42.984;20.336;2023-08-08T14:17:21;665.60;153.60
55331;DHT22;58851;42.984;20.336;2023-08-08T14:19:47;615.30;128.00
55331;DHT22;58851;42.984;20.336;2023-08-08T14:22:13;640.10;128.00
55331;DHT22;58851;42.984;20.336;2023-08-08T14:24:41;691.50;153.60
55331;DHT22;58851;42.984;20.336;2023-08-08T14:27:07;717.50;179.20
55331;DHT22;58851;42.984;20.336;2023-08-08T14:29:33;743.30;204.80
55331;DHT22;58851;42.984;20.336;2023-08-08T14:31:58;793.90;230.40
55331;DHT22;58851;42.984;20.336;2023-08-08T14:34:34;819.60;230.40
55331;DHT22;58851;42.984;20.336;2023-08-08T14:37:02;845.20;256.00
55331;DHT22;58851;42.984;20.336;2023-08-08T14:39:28;845.70;256.00
55331;DHT22;58851;42.984;20.336;2023-08-08T14:41:55;870.90;256.00
55331;DHT22;58851;42.984;20.336;2023-08-08T14:44:21;870.70;256.00
55331;DHT22;58851;42.984;20.336;2023-08-08T14:46:47;845.60;256.00
55331;DHT22;58851;42.984;20.336;2023-08-08T14:49:13;870.60;256.00
55331;DHT22;58851;42.984;20.336;2023-08-08T14:51:39;870.60;256.00